sensor_id;sensor_type;location;lat;lon;timestamp;pressure;altitude;pressure_sealevel;temperature;humidity
48424;BME280;34232;42.502;26.014;2023-04-10T00:00:18;100259.25;;;8.64;63.03
48424;BME280;34232;42.502;26.014;2023-04-10T00:02:43;100255.28;;;8.58;63.65
48424;BME280;34232;42.502;26.014;2023-04-10T00:05:08;100251.09;;;8.56;63.34
48424;BME280;34232;42.502;26.014;2023-04-10T00:07:34;100253.00;;;8.54;63.34
48424;BME280;34232;42.502;26.014;2023-04-10T00:09:59;100246.91;;;8.53;63.23
48424;BME280;34232;42.502;26.014;2023-04-10T00:12:25;100234.84;;;8.51;63.84
48424;BME280;34232;42.502;26.014;2023-04-10T00:14:50;100238.91;;;8.55;63.63
48424;BME280;34232;42.502;26.014;2023-04-10T00:17:15;100235.34;;;8.56;63.50
48424;BME280;34232;42.502;26.014;2023-04-10T00:19:41;100220.56;;;8.55;63.64
48424;BME280;34232;42.502;26.014;2023-04-10T00:22:09;100237.75;;;8.59;63.54
48424;BME280;34232;42.502;26.014;2023-04-10T00:24:34;100232.00;;;8.54;63.83
48424;BME280;34232;42.502;26.014;2023-04-10T00:26:59;100232.41;;;8.48;63.21
48424;BME280;34232;42.502;26.014;2023-04-10T00:29:25;100213.56;;;8.43;62.88
48424;BME280;34232;42.502;26.014;2023-04-10T00:31:51;100218.91;;;8.41;63.14
48424;BME280;34232;42.502;26.014;2023-04-10T00:34:16;100216.50;;;8.38;62.93
48424;BME280;34232;42.502;26.014;2023-04-10T00:36:41;100215.88;;;8.34;62.69
48424;BME280;34232;42.502;26.014;2023-04-10T00:39:09;100211.03;;;8.28;62.85
48424;BME280;34232;42.502;26.014;2023-04-10T00:41:35;100210.00;;;8.18;63.08
48424;BME280;34232;42.502;26.014;2023-04-10T00:44:00;100212.34;;;8.10;63.29
48424;BME280;34232;42.502;26.014;2023-04-10T00:46:26;100202.66;;;7.98;62.94
48424;BME280;34232;42.502;26.014;2023-04-10T00:48:52;100196.19;;;7.91;63.08
48424;BME280;34232;42.502;26.014;2023-04-10T00:51:18;100203.00;;;7.81;63.45
48424;BME280;34232;42.502;26.014;2023-04-10T00:53:46;100207.59;;;7.64;64.04
48424;BME280;34232;42.502;26.014;2023-04-10T00:56:11;100195.34;;;7.52;63.87
48424;BME280;34232;42.502;26.014;2023-04-10T00:58:37;100200.19;;;7.46;64.40
48424;BME280;34232;42.502;26.014;2023-04-10T01:01:02;100200.56;;;7.40;64.56
48424;BME280;34232;42.502;26.014;2023-04-10T01:03:27;100205.38;;;7.33;66.13
48424;BME280;34232;42.502;26.014;2023-04-10T01:13:30;100188.81;;;7.32;66.08
48424;BME280;34232;42.502;26.014;2023-04-10T01:21:18;100189.34;;;7.25;67.51
48424;BME280;34232;42.502;26.014;2023-04-10T01:26:14;100187.97;;;7.32;66.75
48424;BME280;34232;42.502;26.014;2023-04-10T01:28:58;100184.09;;;7.25;66.11
48424;BME280;34232;42.502;26.014;2023-04-10T01:33:51;100191.34;;;7.34;65.02
48424;BME280;34232;42.502;26.014;2023-04-10T01:36:19;100196.56;;;7.34;64.33
48424;BME280;34232;42.502;26.014;2023-04-10T01:38:45;100183.69;;;7.31;64.45
48424;BME280;34232;42.502;26.014;2023-04-10T01:41:12;100189.34;;;7.25;64.87
48424;BME280;34232;42.502;26.014;2023-04-10T01:43:38;100193.63;;;7.26;64.50
48424;BME280;34232;42.502;26.014;2023-04-10T01:46:05;100194.56;;;7.25;64.15
48424;BME280;34232;42.502;26.014;2023-04-10T01:48:31;100193.84;;;7.23;64.50
48424;BME280;34232;42.502;26.014;2023-04-10T01:50:56;100196.72;;;7.06;65.22
48424;BME280;34232;42.502;26.014;2023-04-10T01:53:22;100185.81;;;6.99;65.62
48424;BME280;34232;42.502;26.014;2023-04-10T01:55:48;100186.03;;;6.96;66.98
48424;BME280;34232;42.502;26.014;2023-04-10T01:58:13;100189.41;;;6.98;66.77
48424;BME280;34232;42.502;26.014;2023-04-10T02:00:39;100189.69;;;6.93;66.46
48424;BME280;34232;42.502;26.014;2023-04-10T02:03:06;100187.06;;;6.93;66.91
48424;BME280;34232;42.502;26.014;2023-04-10T02:05:33;100195.09;;;6.90;67.04
48424;BME280;34232;42.502;26.014;2023-04-10T02:08:05;100198.06;;;6.72;67.23
48424;BME280;34232;42.502;26.014;2023-04-10T02:10:53;100190.97;;;6.74;66.96
48424;BME280;34232;42.502;26.014;2023-04-10T02:13:19;100200.97;;;6.67;67.33
48424;BME280;34232;42.502;26.014;2023-04-10T02:15:45;100190.13;;;6.73;68.08
48424;BME280;34232;42.502;26.014;2023-04-10T02:18:11;100188.91;;;6.79;67.86
48424;BME280;34232;42.502;26.014;2023-04-10T02:20:40;100182.63;;;6.81;67.41
48424;BME280;34232;42.502;26.014;2023-04-10T02:23:06;100181.78;;;6.81;67.30
48424;BME280;34232;42.502;26.014;2023-04-10T02:25:32;100195.16;;;6.76;67.72
48424;BME280;34232;42.502;26.014;2023-04-10T02:27:57;100188.06;;;6.78;67.53
48424;BME280;34232;42.502;26.014;2023-04-10T02:30:27;100187.41;;;6.75;68.14
48424;BME280;34232;42.502;26.014;2023-04-10T02:32:53;100184.91;;;6.73;67.82
48424;BME280;34232;42.502;26.014;2023-04-10T02:35:19;100184.25;;;6.70;67.90
48424;BME280;34232;42.502;26.014;2023-04-10T02:37:44;100181.19;;;6.63;68.29
48424;BME280;34232;42.502;26.014;2023-04-10T02:40:11;100192.22;;;6.54;67.92
48424;BME280;34232;42.502;26.014;2023-04-10T02:42:36;100192.31;;;6.52;68.18
48424;BME280;34232;42.502;26.014;2023-04-10T02:45:01;100185.50;;;6.50;68.21
48424;BME280;34232;42.502;26.014;2023-04-10T02:47:27;100188.34;;;6.47;67.64
48424;BME280;34232;42.502;26.014;2023-04-10T02:49:52;100185.16;;;6.42;67.82
48424;BME280;34232;42.502;26.014;2023-04-10T02:52:17;100186.84;;;6.43;68.11
48424;BME280;34232;42.502;26.014;2023-04-10T02:54:43;100184.97;;;6.45;68.01
48424;BME280;34232;42.502;26.014;2023-04-10T02:57:08;100184.03;;;6.46;67.56
48424;BME280;34232;42.502;26.014;2023-04-10T02:59:33;100185.06;;;6.43;67.33
48424;BME280;34232;42.502;26.014;2023-04-10T03:01:58;100187.03;;;6.40;68.27
48424;BME280;34232;42.502;26.014;2023-04-10T03:04:24;100185.44;;;6.37;68.43
48424;BME280;34232;42.502;26.014;2023-04-10T03:06:49;100179.94;;;6.42;68.35
48424;BME280;34232;42.502;26.014;2023-04-10T03:09:14;100177.13;;;6.45;67.79
48424;BME280;34232;42.502;26.014;2023-04-10T03:11:40;100179.56;;;6.48;67.87
48424;BME280;34232;42.502;26.014;2023-04-10T03:14:05;100177.88;;;6.47;67.96
48424;BME280;34232;42.502;26.014;2023-04-10T03:16:31;100177.66;;;6.50;67.85
48424;BME280;34232;42.502;26.014;2023-04-10T03:18:56;100176.63;;;6.52;68.08
48424;BME280;34232;42.502;26.014;2023-04-10T03:21:21;100173.50;;;6.47;68.20
48424;BME280;34232;42.502;26.014;2023-04-10T03:23:47;100181.44;;;6.46;68.43
48424;BME280;34232;42.502;26.014;2023-04-10T03:26:12;100176.22;;;6.46;68.26
48424;BME280;34232;42.502;26.014;2023-04-10T03:28:37;100179.56;;;6.48;68.92
48424;BME280;34232;42.502;26.014;2023-04-10T03:31:06;100178.91;;;6.44;69.08
48424;BME280;34232;42.502;26.014;2023-04-10T03:33:31;100175.84;;;6.38;68.93
48424;BME280;34232;42.502;26.014;2023-04-10T03:35:57;100173.81;;;6.28;68.85
48424;BME280;34232;42.502;26.014;2023-04-10T03:38:22;100173.63;;;6.31;69.36
48424;BME280;34232;42.502;26.014;2023-04-10T03:40:48;100174.56;;;6.30;69.22
48424;BME280;34232;42.502;26.014;2023-04-10T03:43:13;100170.81;;;6.20;70.09
48424;BME280;34232;42.502;26.014;2023-04-10T03:45:38;100170.81;;;6.20;69.85
48424;BME280;34232;42.502;26.014;2023-04-10T03:48:04;100179.59;;;6.19;69.60
48424;BME280;34232;42.502;26.014;2023-04-10T03:50:29;100172.50;;;6.21;70.07
48424;BME280;34232;42.502;26.014;2023-04-10T03:52:55;100177.91;;;6.18;70.02
48424;BME280;34232;42.502;26.014;2023-04-10T03:55:20;100174.59;;;6.16;70.06
48424;BME280;34232;42.502;26.014;2023-04-10T03:57:46;100183.91;;;6.06;70.75
48424;BME280;34232;42.502;26.014;2023-04-10T04:00:14;100179.72;;;6.04;70.72
48424;BME280;34232;42.502;26.014;2023-04-10T04:02:40;100177.19;;;6.02;70.64
48424;BME280;34232;42.502;26.014;2023-04-10T04:05:05;100179.25;;;5.83;71.83
48424;BME280;34232;42.502;26.014;2023-04-10T04:07:31;100187.44;;;5.77;72.73
48424;BME280;34232;42.502;26.014;2023-04-10T04:09:56;100184.47;;;5.83;72.83
48424;BME280;34232;42.502;26.014;2023-04-10T04:12:21;100182.34;;;5.89;72.36
48424;BME280;34232;42.502;26.014;2023-04-10T04:14:46;100181.50;;;5.89;73.28
48424;BME280;34232;42.502;26.014;2023-04-10T04:17:12;100183.75;;;5.95;73.11
48424;BME280;34232;42.502;26.014;2023-04-10T04:19:37;100178.88;;;6.03;73.07
48424;BME280;34232;42.502;26.014;2023-04-10T04:22:02;100181.03;;;6.11;73.57
48424;BME280;34232;42.502;26.014;2023-04-10T04:24:28;100182.44;;;6.16;73.08
48424;BME280;34232;42.502;26.014;2023-04-10T04:26:53;100189.69;;;6.25;73.13
48424;BME280;34232;42.502;26.014;2023-04-10T04:29:18;100182.19;;;6.33;72.86
48424;BME280;34232;42.502;26.014;2023-04-10T04:31:43;100188.91;;;6.38;73.22
48424;BME280;34232;42.502;26.014;2023-04-10T04:34:09;100189.38;;;6.44;73.10
48424;BME280;34232;42.502;26.014;2023-04-10T04:36:34;100193.25;;;6.51;73.55
48424;BME280;34232;42.502;26.014;2023-04-10T04:38:59;100190.72;;;6.64;72.21
48424;BME280;34232;42.502;26.014;2023-04-10T04:41:25;100175.56;;;6.69;71.78
48424;BME280;34232;42.502;26.014;2023-04-10T04:43:50;100184.09;;;6.85;71.36
48424;BME280;34232;42.502;26.014;2023-04-10T04:46:17;100174.72;;;6.95;70.90
48424;BME280;34232;42.502;26.014;2023-04-10T04:48:42;100180.63;;;7.12;69.29
48424;BME280;34232;42.502;26.014;2023-04-10T04:51:07;100177.50;;;7.19;68.60
48424;BME280;34232;42.502;26.014;2023-04-10T04:53:33;100178.97;;;7.23;68.52
48424;BME280;34232;42.502;26.014;2023-04-10T04:55:58;100181.69;;;7.34;68.26
48424;BME280;34232;42.502;26.014;2023-04-10T04:58:23;100178.06;;;7.50;67.35
48424;BME280;34232;42.502;26.014;2023-04-10T05:00:52;100177.34;;;7.60;67.32
48424;BME280;34232;42.502;26.014;2023-04-10T05:03:17;100187.63;;;7.76;67.22
48424;BME280;34232;42.502;26.014;2023-04-10T05:05:42;100182.16;;;7.92;66.97
48424;BME280;34232;42.502;26.014;2023-04-10T05:08:07;100186.13;;;8.10;65.87
48424;BME280;34232;42.502;26.014;2023-04-10T05:10:33;100180.63;;;8.13;65.78
48424;BME280;34232;42.502;26.014;2023-04-10T05:12:58;100177.91;;;8.40;66.75
48424;BME280;34232;42.502;26.014;2023-04-10T05:15:24;100185.72;;;8.53;66.21
48424;BME280;34232;42.502;26.014;2023-04-10T05:17:49;100187.44;;;8.65;66.12
48424;BME280;34232;42.502;26.014;2023-04-10T05:20:16;100191.31;;;8.72;65.79
48424;BME280;34232;42.502;26.014;2023-04-10T05:22:42;100193.78;;;8.86;65.01
48424;BME280;34232;42.502;26.014;2023-04-10T05:25:07;100201.25;;;9.03;64.73
48424;BME280;34232;42.502;26.014;2023-04-10T05:27:32;100201.59;;;9.34;65.37
48424;BME280;34232;42.502;26.014;2023-04-10T05:29:58;100202.56;;;9.44;63.63
48424;BME280;34232;42.502;26.014;2023-04-10T05:32:23;100204.03;;;9.48;62.25
48424;BME280;34232;42.502;26.014;2023-04-10T05:34:48;100209.50;;;9.45;62.01
48424;BME280;34232;42.502;26.014;2023-04-10T05:37:14;100201.06;;;9.53;61.40
48424;BME280;34232;42.502;26.014;2023-04-10T05:39:39;100205.75;;;9.71;60.91
48424;BME280;34232;42.502;26.014;2023-04-10T05:42:04;100203.13;;;9.82;60.43
48424;BME280;34232;42.502;26.014;2023-04-10T05:44:29;100196.66;;;9.75;61.03
48424;BME280;34232;42.502;26.014;2023-04-10T05:46:55;100197.41;;;10.00;61.17
48424;BME280;34232;42.502;26.014;2023-04-10T05:49:20;100199.81;;;10.25;60.09
48424;BME280;34232;42.502;26.014;2023-04-10T05:51:46;100197.91;;;10.49;58.96
48424;BME280;34232;42.502;26.014;2023-04-10T05:54:14;100186.44;;;10.82;58.79
48424;BME280;34232;42.502;26.014;2023-04-10T05:56:40;100188.16;;;11.04;57.23
48424;BME280;34232;42.502;26.014;2023-04-10T05:59:05;100187.09;;;11.28;56.53
48424;BME280;34232;42.502;26.014;2023-04-10T06:01:30;100193.97;;;11.40;56.18
48424;BME280;34232;42.502;26.014;2023-04-10T06:03:55;100192.50;;;11.47;56.51
48424;BME280;34232;42.502;26.014;2023-04-10T06:06:21;100187.88;;;11.60;57.27
48424;BME280;34232;42.502;26.014;2023-04-10T06:08:48;100188.84;;;11.59;56.98
48424;BME280;34232;42.502;26.014;2023-04-10T06:11:13;100189.91;;;11.56;56.58
48424;BME280;34232;42.502;26.014;2023-04-10T06:13:39;100184.59;;;11.47;57.30
48424;BME280;34232;42.502;26.014;2023-04-10T06:16:05;100185.63;;;11.35;56.74
48424;BME280;34232;42.502;26.014;2023-04-10T06:18:30;100178.00;;;11.20;57.23
48424;BME280;34232;42.502;26.014;2023-04-10T06:20:55;100179.97;;;11.18;57.30
48424;BME280;34232;42.502;26.014;2023-04-10T06:23:22;100173.47;;;11.22;58.29
48424;BME280;34232;42.502;26.014;2023-04-10T06:25:47;100180.16;;;11.47;58.10
48424;BME280;34232;42.502;26.014;2023-04-10T06:28:12;100179.63;;;11.74;56.64
48424;BME280;34232;42.502;26.014;2023-04-10T06:30:38;100186.00;;;11.93;55.58
48424;BME280;34232;42.502;26.014;2023-04-10T06:33:03;100186.44;;;11.98;55.01
48424;BME280;34232;42.502;26.014;2023-04-10T06:35:28;100184.41;;;12.11;55.26
48424;BME280;34232;42.502;26.014;2023-04-10T06:37:54;100196.03;;;11.99;56.03
48424;BME280;34232;42.502;26.014;2023-04-10T06:40:19;100195.47;;;12.05;55.13
48424;BME280;34232;42.502;26.014;2023-04-10T06:42:44;100191.63;;;12.09;55.55
48424;BME280;34232;42.502;26.014;2023-04-10T06:45:09;100196.81;;;11.89;56.44
48424;BME280;34232;42.502;26.014;2023-04-10T06:47:35;100200.94;;;11.82;57.12
48424;BME280;34232;42.502;26.014;2023-04-10T06:50:00;100198.69;;;11.78;57.98
48424;BME280;34232;42.502;26.014;2023-04-10T06:52:25;100201.22;;;11.79;58.31
48424;BME280;34232;42.502;26.014;2023-04-10T06:54:51;100199.00;;;11.64;59.99
48424;BME280;34232;42.502;26.014;2023-04-10T06:57:16;100199.75;;;11.75;59.74
48424;BME280;34232;42.502;26.014;2023-04-10T06:59:43;100199.69;;;11.86;59.43
48424;BME280;34232;42.502;26.014;2023-04-10T07:02:08;100199.91;;;11.95;58.72
48424;BME280;34232;42.502;26.014;2023-04-10T07:04:33;100207.97;;;12.03;58.50
48424;BME280;34232;42.502;26.014;2023-04-10T07:06:58;100205.25;;;12.14;58.77
48424;BME280;34232;42.502;26.014;2023-04-10T07:09:24;100199.28;;;12.12;58.85
48424;BME280;34232;42.502;26.014;2023-04-10T07:11:50;100204.16;;;12.16;59.49
48424;BME280;34232;42.502;26.014;2023-04-10T07:14:16;100199.38;;;12.01;59.73
48424;BME280;34232;42.502;26.014;2023-04-10T07:16:41;100208.94;;;12.02;59.51
48424;BME280;34232;42.502;26.014;2023-04-10T07:19:06;100215.72;;;11.95;60.26
48424;BME280;34232;42.502;26.014;2023-04-10T07:21:31;100209.94;;;12.01;60.31
48424;BME280;34232;42.502;26.014;2023-04-10T07:23:57;100213.00;;;12.06;60.59
48424;BME280;34232;42.502;26.014;2023-04-10T07:26:22;100205.13;;;12.15;60.12
48424;BME280;34232;42.502;26.014;2023-04-10T07:28:47;100214.50;;;12.29;59.89
48424;BME280;34232;42.502;26.014;2023-04-10T07:31:13;100212.16;;;12.05;60.53
48424;BME280;34232;42.502;26.014;2023-04-10T07:33:38;100214.66;;;12.07;60.61
48424;BME280;34232;42.502;26.014;2023-04-10T07:36:04;100213.25;;;12.03;60.67
48424;BME280;34232;42.502;26.014;2023-04-10T07:38:31;100213.06;;;12.15;60.42
48424;BME280;34232;42.502;26.014;2023-04-10T07:40:56;100214.50;;;12.29;60.03
48424;BME280;34232;42.502;26.014;2023-04-10T07:43:22;100212.97;;;12.36;60.45
48424;BME280;34232;42.502;26.014;2023-04-10T07:45:47;100211.22;;;12.46;60.98
48424;BME280;34232;42.502;26.014;2023-04-10T07:48:13;100215.94;;;12.52;60.22
48424;BME280;34232;42.502;26.014;2023-04-10T07:50:38;100217.09;;;12.59;60.36
48424;BME280;34232;42.502;26.014;2023-04-10T07:53:03;100215.81;;;12.54;60.41
48424;BME280;34232;42.502;26.014;2023-04-10T07:55:36;100222.63;;;12.56;59.57
48424;BME280;34232;42.502;26.014;2023-04-10T07:58:01;100216.13;;;12.60;59.24
48424;BME280;34232;42.502;26.014;2023-04-10T08:00:26;100215.41;;;12.58;59.65
48424;BME280;34232;42.502;26.014;2023-04-10T08:02:51;100214.69;;;12.47;60.02
48424;BME280;34232;42.502;26.014;2023-04-10T08:05:17;100219.00;;;12.48;61.48
48424;BME280;34232;42.502;26.014;2023-04-10T08:07:42;100222.75;;;12.45;60.92
48424;BME280;34232;42.502;26.014;2023-04-10T08:10:07;100216.06;;;12.51;60.38
48424;BME280;34232;42.502;26.014;2023-04-10T08:12:33;100218.59;;;12.52;60.78
48424;BME280;34232;42.502;26.014;2023-04-10T08:14:58;100215.22;;;12.41;62.06
48424;BME280;34232;42.502;26.014;2023-04-10T08:17:23;100224.25;;;12.38;62.52
48424;BME280;34232;42.502;26.014;2023-04-10T08:19:49;100216.50;;;12.46;64.43
48424;BME280;34232;42.502;26.014;2023-04-10T08:22:14;100215.59;;;12.36;65.77
48424;BME280;34232;42.502;26.014;2023-04-10T08:24:40;100213.59;;;12.19;67.73
48424;BME280;34232;42.502;26.014;2023-04-10T08:27:05;100211.72;;;12.31;68.02
48424;BME280;34232;42.502;26.014;2023-04-10T08:29:30;100218.97;;;12.38;64.68
48424;BME280;34232;42.502;26.014;2023-04-10T08:31:55;100211.75;;;12.40;65.36
48424;BME280;34232;42.502;26.014;2023-04-10T08:34:24;100215.59;;;12.36;66.32
48424;BME280;34232;42.502;26.014;2023-04-10T08:36:49;100218.13;;;12.38;66.48
48424;BME280;34232;42.502;26.014;2023-04-10T08:39:14;100210.13;;;12.49;65.87
48424;BME280;34232;42.502;26.014;2023-04-10T08:41:40;100205.38;;;12.52;65.91
48424;BME280;34232;42.502;26.014;2023-04-10T08:44:05;100208.72;;;12.54;65.86
48424;BME280;34232;42.502;26.014;2023-04-10T08:46:31;100195.06;;;12.40;65.37
48424;BME280;34232;42.502;26.014;2023-04-10T08:49:03;100201.50;;;12.56;65.14
48424;BME280;34232;42.502;26.014;2023-04-10T08:51:50;100190.41;;;12.63;64.97
48424;BME280;34232;42.502;26.014;2023-04-10T08:54:18;100193.34;;;12.79;66.18
48424;BME280;34232;42.502;26.014;2023-04-10T08:56:48;100195.72;;;12.91;66.31
48424;BME280;34232;42.502;26.014;2023-04-10T08:59:15;100184.44;;;12.99;65.56
48424;BME280;34232;42.502;26.014;2023-04-10T09:01:40;100180.72;;;13.11;64.50
48424;BME280;34232;42.502;26.014;2023-04-10T09:04:05;100180.75;;;13.21;63.06
48424;BME280;34232;42.502;26.014;2023-04-10T09:06:31;100181.28;;;13.24;61.39
48424;BME280;34232;42.502;26.014;2023-04-10T09:08:56;100176.00;;;13.24;61.35
48424;BME280;34232;42.502;26.014;2023-04-10T09:11:23;100168.19;;;13.32;60.84
48424;BME280;34232;42.502;26.014;2023-04-10T09:13:48;100162.06;;;13.42;61.48
48424;BME280;34232;42.502;26.014;2023-04-10T09:16:15;100157.47;;;13.44;62.28
48424;BME280;34232;42.502;26.014;2023-04-10T09:18:41;100159.53;;;13.50;61.78
48424;BME280;34232;42.502;26.014;2023-04-10T09:21:07;100155.22;;;13.58;63.74
48424;BME280;34232;42.502;26.014;2023-04-10T09:23:32;100156.75;;;13.61;63.04
48424;BME280;34232;42.502;26.014;2023-04-10T09:25:57;100153.66;;;13.65;62.77
48424;BME280;34232;42.502;26.014;2023-04-10T09:28:23;100151.28;;;13.72;63.44
48424;BME280;34232;42.502;26.014;2023-04-10T09:30:48;100146.81;;;13.73;63.84
48424;BME280;34232;42.502;26.014;2023-04-10T09:35:44;100143.28;;;13.82;62.73
48424;BME280;34232;42.502;26.014;2023-04-10T09:38:13;100144.81;;;13.84;63.25
48424;BME280;34232;42.502;26.014;2023-04-10T09:40:39;100144.69;;;13.86;64.06
48424;BME280;34232;42.502;26.014;2023-04-10T09:45:46;100143.66;;;13.96;62.89
48424;BME280;34232;42.502;26.014;2023-04-10T09:48:11;100143.22;;;14.01;60.26
48424;BME280;34232;42.502;26.014;2023-04-10T09:50:37;100140.44;;;14.02;59.20
48424;BME280;34232;42.502;26.014;2023-04-10T09:53:04;100138.88;;;14.10;60.71
48424;BME280;34232;42.502;26.014;2023-04-10T09:55:30;100135.13;;;14.12;60.82
48424;BME280;34232;42.502;26.014;2023-04-10T09:57:56;100137.00;;;14.20;60.10
48424;BME280;34232;42.502;26.014;2023-04-10T10:00:22;100131.81;;;14.28;59.80
48424;BME280;34232;42.502;26.014;2023-04-10T10:02:48;100131.06;;;14.35;57.19
48424;BME280;34232;42.502;26.014;2023-04-10T10:05:14;100130.22;;;14.35;58.08
48424;BME280;34232;42.502;26.014;2023-04-10T10:07:40;100132.47;;;14.30;58.26
48424;BME280;34232;42.502;26.014;2023-04-10T10:10:05;100119.63;;;14.35;57.53
48424;BME280;34232;42.502;26.014;2023-04-10T10:12:33;100127.44;;;14.36;57.56
48424;BME280;34232;42.502;26.014;2023-04-10T10:15:01;100122.50;;;14.24;55.95
48424;BME280;34232;42.502;26.014;2023-04-10T10:20:21;100121.38;;;14.26;59.60
48424;BME280;34232;42.502;26.014;2023-04-10T10:22:48;100111.84;;;14.33;60.09
48424;BME280;34232;42.502;26.014;2023-04-10T10:25:14;100116.00;;;14.36;58.25
48424;BME280;34232;42.502;26.014;2023-04-10T10:27:40;100106.94;;;14.39;58.52
48424;BME280;34232;42.502;26.014;2023-04-10T10:30:06;100109.03;;;14.35;56.81
48424;BME280;34232;42.502;26.014;2023-04-10T10:32:33;100101.53;;;14.40;58.88
48424;BME280;34232;42.502;26.014;2023-04-10T10:34:59;100094.41;;;14.41;57.18
48424;BME280;34232;42.502;26.014;2023-04-10T10:37:25;100096.28;;;14.48;57.04
48424;BME280;34232;42.502;26.014;2023-04-10T10:40:00;100086.38;;;14.50;58.45
48424;BME280;34232;42.502;26.014;2023-04-10T10:47:28;100080.91;;;14.34;57.12
48424;BME280;34232;42.502;26.014;2023-04-10T10:57:50;100071.56;;;14.57;56.73
48424;BME280;34232;42.502;26.014;2023-04-10T11:00:16;100063.38;;;14.68;55.19
48424;BME280;34232;42.502;26.014;2023-04-10T11:02:42;100070.09;;;14.81;54.61
48424;BME280;34232;42.502;26.014;2023-04-10T11:05:07;100061.59;;;14.95;53.80
48424;BME280;34232;42.502;26.014;2023-04-10T11:10:16;100052.00;;;15.20;52.70
48424;BME280;34232;42.502;26.014;2023-04-10T11:13:15;100049.53;;;15.26;51.43
48424;BME280;34232;42.502;26.014;2023-04-10T11:15:33;100045.44;;;15.32;48.04
48424;BME280;34232;42.502;26.014;2023-04-10T11:17:59;100045.97;;;15.35;46.20
48424;BME280;34232;42.502;26.014;2023-04-10T11:20:25;100041.28;;;15.29;46.35
48424;BME280;34232;42.502;26.014;2023-04-10T11:23:10;100045.25;;;15.25;46.56
48424;BME280;34232;42.502;26.014;2023-04-10T11:25:52;100037.66;;;15.30;46.42
48424;BME280;34232;42.502;26.014;2023-04-10T11:31:21;100034.00;;;15.31;45.43
48424;BME280;34232;42.502;26.014;2023-04-10T11:34:05;100032.56;;;15.37;45.46
48424;BME280;34232;42.502;26.014;2023-04-10T11:36:32;100026.78;;;15.42;43.59
48424;BME280;34232;42.502;26.014;2023-04-10T11:39:02;100028.47;;;15.51;44.61
48424;BME280;34232;42.502;26.014;2023-04-10T11:41:30;100018.00;;;15.41;46.42
48424;BME280;34232;42.502;26.014;2023-04-10T11:43:59;100028.16;;;15.54;47.51
48424;BME280;34232;42.502;26.014;2023-04-10T11:46:25;100019.38;;;15.53;46.92
48424;BME280;34232;42.502;26.014;2023-04-10T11:49:00;100019.31;;;15.45;46.40
48424;BME280;34232;42.502;26.014;2023-04-10T11:51:26;100012.59;;;15.25;47.80
48424;BME280;34232;42.502;26.014;2023-04-10T11:56:32;100011.78;;;15.24;48.91
48424;BME280;34232;42.502;26.014;2023-04-10T11:58:58;100013.09;;;15.28;49.49
48424;BME280;34232;42.502;26.014;2023-04-10T12:01:24;100008.97;;;15.26;47.73
48424;BME280;34232;42.502;26.014;2023-04-10T12:03:49;100007.09;;;15.18;48.16
48424;BME280;34232;42.502;26.014;2023-04-10T12:06:14;99998.75;;;15.13;47.90
48424;BME280;34232;42.502;26.014;2023-04-10T12:08:46;100003.22;;;15.13;49.71
48424;BME280;34232;42.502;26.014;2023-04-10T12:11:16;99995.97;;;14.89;51.07
48424;BME280;34232;42.502;26.014;2023-04-10T12:13:41;99995.69;;;14.74;49.04
48424;BME280;34232;42.502;26.014;2023-04-10T12:16:07;99991.53;;;14.72;49.81
48424;BME280;34232;42.502;26.014;2023-04-10T12:18:33;99989.50;;;14.65;49.89
48424;BME280;34232;42.502;26.014;2023-04-10T12:20:59;99991.94;;;14.59;49.87
48424;BME280;34232;42.502;26.014;2023-04-10T12:23:25;99991.03;;;14.50;49.82
48424;BME280;34232;42.502;26.014;2023-04-10T12:25:51;99991.66;;;14.44;50.25
48424;BME280;34232;42.502;26.014;2023-04-10T12:28:18;99983.72;;;14.44;49.88
48424;BME280;34232;42.502;26.014;2023-04-10T12:30:47;99982.47;;;14.56;51.06
48424;BME280;34232;42.502;26.014;2023-04-10T12:33:12;99981.84;;;14.62;50.05
48424;BME280;34232;42.502;26.014;2023-04-10T12:35:38;99984.72;;;14.69;48.59
48424;BME280;34232;42.502;26.014;2023-04-10T12:38:03;99979.53;;;14.85;48.18
48424;BME280;34232;42.502;26.014;2023-04-10T12:40:29;99974.13;;;14.95;48.22
48424;BME280;34232;42.502;26.014;2023-04-10T12:42:54;99970.84;;;15.01;47.54
48424;BME280;34232;42.502;26.014;2023-04-10T12:45:20;99976.22;;;15.09;47.41
48424;BME280;34232;42.502;26.014;2023-04-10T12:47:46;99970.25;;;15.07;48.21
48424;BME280;34232;42.502;26.014;2023-04-10T12:50:12;99971.94;;;15.16;48.38
48424;BME280;34232;42.502;26.014;2023-04-10T12:52:39;99971.63;;;15.19;48.29
48424;BME280;34232;42.502;26.014;2023-04-10T12:55:12;99972.22;;;15.05;46.34
48424;BME280;34232;42.502;26.014;2023-04-10T12:57:38;99973.66;;;14.99;47.16
48424;BME280;34232;42.502;26.014;2023-04-10T13:00:04;99967.75;;;15.05;48.14
48424;BME280;34232;42.502;26.014;2023-04-10T13:02:30;99963.41;;;15.04;48.79
48424;BME280;34232;42.502;26.014;2023-04-10T13:04:55;99963.13;;;15.08;48.57
48424;BME280;34232;42.502;26.014;2023-04-10T13:07:20;99948.13;;;14.98;50.78
48424;BME280;34232;42.502;26.014;2023-04-10T13:09:46;99968.81;;;14.95;51.22
48424;BME280;34232;42.502;26.014;2023-04-10T13:12:11;99969.47;;;14.89;52.26
48424;BME280;34232;42.502;26.014;2023-04-10T13:14:37;99970.72;;;14.77;55.71
48424;BME280;34232;42.502;26.014;2023-04-10T13:17:02;99972.75;;;14.65;56.12
48424;BME280;34232;42.502;26.014;2023-04-10T13:19:27;99968.94;;;14.59;54.73
48424;BME280;34232;42.502;26.014;2023-04-10T13:21:52;99964.38;;;14.34;56.99
48424;BME280;34232;42.502;26.014;2023-04-10T13:24:20;99981.38;;;14.31;57.93
48424;BME280;34232;42.502;26.014;2023-04-10T13:26:45;99977.16;;;14.21;61.36